Time;durP1;ratioP1;P1;durP2;ratioP2;P2;SDS_P1;SDS_P2;PMS_P1;PMS_P2;Temp;Humidity;BMP_temperature;BMP_pressure;BME280_temperature;BME280_humidity;BME280_pressure;Samples;Min_cycle;Max_cycle;Signal;HPM_P1;HPM_P2
2021/08/20 04:31:40;;;;;;;4.87;2.20;;;16.50;99.90;;;;;;5538552;23;20495;-81
2021/08/20 04:34:06;;;;;;;2.10;1.43;;;16.50;99.90;;;;;;4961096;29;20940;-81
2021/08/20 04:36:31;;;;;;;2.30;2.10;;;16.50;99.90;;;;;;4964452;29;20573;-81
2021/08/20 04:38:57;;;;;;;3.17;2.03;;;16.50;99.90;;;;;;4963788;29;20185;-82
2021/08/20 04:41:22;;;;;;;1.67;1.57;;;16.50;99.90;;;;;;4963673;28;20207;-83
2021/08/20 04:43:50;;;;;;;2.13;1.90;;;16.50;99.90;;;;;;4964639;28;20177;-81
2021/08/20 04:46:16;;;;;;;2.27;1.90;;;16.50;99.90;;;;;;4964288;28;20173;-81
2021/08/20 04:48:41;;;;;;;2.47;1.80;;;16.50;99.90;;;;;;4963203;28;20466;-81
2021/08/20 04:51:07;;;;;;;2.10;2.00;;;16.50;99.90;;;;;;4963857;28;20503;-81
2021/08/20 04:53:32;;;;;;;2.10;1.73;;;16.50;99.90;;;;;;4962891;28;20264;-81
2021/08/20 04:55:58;;;;;;;2.70;2.00;;;16.50;99.90;;;;;;4962906;28;20181;-81
2021/08/20 04:58:25;;;;;;;1.43;1.30;;;16.50;99.90;;;;;;4963614;28;20189;-82
2021/08/20 05:00:51;;;;;;;2.70;1.60;;;16.50;99.90;;;;;;4962890;28;20440;-81
2021/08/20 05:03:18;;;;;;;2.47;1.87;;;16.50;99.90;;;;;;4962782;28;20809;-81
2021/08/20 05:05:44;;;;;;;4.00;2.07;;;16.50;99.90;;;;;;4963732;28;20413;-78
2021/08/20 05:08:10;;;;;;;9.70;2.00;;;16.50;99.90;;;;;;4962588;28;20420;-81
2021/08/20 05:10:36;;;;;;;1.77;1.67;;;16.50;99.90;;;;;;4963480;28;20428;-81
2021/08/20 05:13:02;;;;;;;2.43;2.23;;;16.60;99.90;;;;;;4962787;28;20181;-81
2021/08/20 05:15:27;;;;;;;2.77;2.30;;;16.60;99.90;;;;;;4962868;28;20179;-81
2021/08/20 05:17:57;;;;;;;2.10;2.00;;;16.60;99.90;;;;;;4962731;28;20188;-83
2021/08/20 05:20:23;;;;;;;3.20;2.50;;;16.70;99.90;;;;;;4963173;28;20180;-81
2021/08/20 05:22:52;;;;;;;4.03;1.93;;;16.70;99.90;;;;;;4962806;28;20538;-81
2021/08/20 05:25:19;;;;;;;3.70;2.10;;;16.70;99.90;;;;;;4962204;28;20628;-81
2021/08/20 05:27:45;;;;;;;3.17;2.03;;;16.80;99.90;;;;;;4961965;28;20455;-82
2021/08/20 05:30:12;;;;;;;2.20;2.10;;;16.80;99.90;;;;;;4962114;28;20821;-81
2021/08/20 05:32:38;;;;;;;1.70;1.43;;;16.80;99.90;;;;;;4962507;28;20460;-81
2021/08/20 05:35:06;;;;;;;2.73;2.17;;;16.90;99.90;;;;;;4959000;29;20425;-81
2021/08/20 05:37:33;;;;;;;2.43;2.20;;;16.90;99.90;;;;;;4958230;28;20527;-81
2021/08/20 05:39:58;;;;;;;3.10;2.30;;;17.00;99.90;;;;;;4956955;28;20499;-82
2021/08/20 05:42:24;;;;;;;2.60;2.27;;;17.10;99.90;;;;;;4957148;28;20208;-81
2021/08/20 05:44:49;;;;;;;2.27;1.90;;;17.10;99.90;;;;;;4957365;28;20184;-81
2021/08/20 05:47:15;;;;;;;2.63;2.10;;;17.10;99.90;;;;;;4957134;28;20188;-81
2021/08/20 05:49:40;;;;;;;2.50;2.03;;;17.20;99.90;;;;;;4956664;28;20204;-82
2021/08/20 05:52:07;;;;;;;5.50;2.00;;;17.30;99.90;;;;;;4956373;28;20230;-82
2021/08/20 05:54:32;;;;;;;2.00;1.90;;;17.30;99.90;;;;;;4956689;28;20549;-81
2021/08/20 05:56:59;;;;;;;6.77;2.23;;;17.40;99.90;;;;;;4956278;28;20409;-81
2021/08/20 05:59:25;;;;;;;2.20;2.10;;;17.40;99.90;;;;;;4956198;28;20173;-81
2021/08/20 06:01:50;;;;;;;2.43;2.23;;;17.50;99.90;;;;;;4957135;28;20448;-81
2021/08/20 06:04:16;;;;;;;4.03;2.47;;;17.60;99.90;;;;;;4960590;28;20550;-81
2021/08/20 06:06:41;;;;;;;2.50;2.30;;;17.60;99.90;;;;;;4961054;28;20180;-81
2021/08/20 06:09:07;;;;;;;2.63;2.10;;;17.70;99.90;;;;;;4960556;28;20212;-81
2021/08/20 06:11:33;;;;;;;2.10;1.90;;;17.80;99.90;;;;;;4960657;28;20608;-81
2021/08/20 06:13:59;;;;;;;3.50;2.03;;;17.80;99.90;;;;;;4956110;28;20181;-81
2021/08/20 06:16:25;;;;;;;5.73;2.53;;;17.90;99.90;;;;;;4956191;28;20476;-81
2021/08/20 06:18:51;;;;;;;2.93;2.70;;;18.00;99.90;;;;;;4960691;28;20420;-81
2021/08/20 06:21:17;;;;;;;4.57;3.67;;;18.10;99.90;;;;;;4960670;28;20263;-81
2021/08/20 06:23:42;;;;;;;5.23;2.40;;;18.20;99.90;;;;;;4960866;28;20425;-81
2021/08/20 06:26:08;;;;;;;3.07;2.47;;;18.30;99.90;;;;;;4960948;28;20199;-81
2021/08/20 06:28:33;;;;;;;3.17;2.83;;;18.50;99.90;;;;;;4960222;28;20212;-81
2021/08/20 06:31:03;;;;;;;7.53;3.13;;;18.60;99.90;;;;;;4959731;28;20212;-82
2021/08/20 06:33:32;;;;;;;4.00;2.83;;;18.70;99.90;;;;;;4960243;28;20179;-82
2021/08/20 06:35:58;;;;;;;4.50;3.00;;;18.80;99.90;;;;;;4959909;28;20428;-82
2021/08/20 06:38:24;;;;;;;6.30;2.40;;;19.00;99.90;;;;;;4960111;28;20515;-82
2021/08/20 06:40:49;;;;;;;6.93;2.77;;;19.10;99.90;;;;;;4959363;28;20224;-81
2021/08/20 06:43:15;;;;;;;7.07;3.20;;;19.30;99.90;;;;;;4959691;28;20180;-81
2021/08/20 06:45:41;;;;;;;3.00;2.70;;;19.40;99.90;;;;;;4960071;28;20192;-82
2021/08/20 06:48:06;;;;;;;3.47;2.70;;;19.50;99.90;;;;;;4959435;28;20201;-82
2021/08/20 06:50:32;;;;;;;3.60;3.00;;;19.70;99.90;;;;;;4959015;28;20208;-82
2021/08/20 06:52:57;;;;;;;3.50;2.80;;;19.90;99.90;;;;;;4958410;28;20204;-81
2021/08/20 06:55:23;;;;;;;6.50;2.77;;;20.20;99.90;;;;;;4959303;28;20658;-82
2021/08/20 06:57:48;;;;;;;5.40;3.10;;;20.50;99.90;;;;;;4958054;29;20275;-79
2021/08/20 07:00:14;;;;;;;3.13;2.83;;;20.90;99.90;;;;;;4955047;28;20188;-79
2021/08/20 07:02:45;;;;;;;3.77;2.97;;;21.50;99.90;;;;;;4954951;28;20595;-79
2021/08/20 07:05:12;;;;;;;6.87;2.83;;;22.00;99.90;;;;;;4954844;28;20440;-79
2021/08/20 07:07:37;;;;;;;3.83;3.53;;;22.40;99.90;;;;;;4954836;28;20428;-79
2021/08/20 07:10:07;;;;;;;4.73;3.47;;;22.80;99.90;;;;;;4954627;28;20498;-79
2021/08/20 07:12:32;;;;;;;4.50;3.90;;;23.20;99.90;;;;;;4954767;28;20189;-79
2021/08/20 07:14:58;;;;;;;8.00;3.73;;;23.60;99.90;;;;;;4954862;28;20447;-79
2021/08/20 07:17:23;;;;;;;4.80;3.87;;;23.90;99.90;;;;;;4954917;28;20187;-79
2021/08/20 07:19:49;;;;;;;6.70;3.87;;;24.00;99.90;;;;;;4954579;28;20243;-80
2021/08/20 07:22:14;;;;;;;7.53;4.13;;;24.20;99.90;;;;;;4954336;28;20749;-80
2021/08/20 07:24:40;;;;;;;4.63;3.60;;;24.60;99.90;;;;;;4954509;28;20222;-79
2021/08/20 07:27:05;;;;;;;4.50;4.10;;;24.80;99.90;;;;;;4954236;28;20185;-79
2021/08/20 07:29:31;;;;;;;7.83;4.50;;;24.60;99.90;;;;;;4954192;28;20239;-80
2021/08/20 07:31:56;;;;;;;6.90;3.90;;;24.70;99.90;;;;;;4954210;28;20311;-79
2021/08/20 07:34:22;;;;;;;4.70;3.60;;;24.80;99.90;;;;;;4954216;28;20214;-79
2021/08/20 07:36:47;;;;;;;4.23;3.80;;;24.90;99.90;;;;;;4954181;28;20212;-80
2021/08/20 07:39:13;;;;;;;7.27;4.50;;;24.70;99.90;;;;;;4953835;28;20680;-79
2021/08/20 07:41:38;;;;;;;5.93;5.33;;;24.50;99.90;;;;;;4954170;28;20209;-80
2021/08/20 07:44:04;;;;;;;6.40;5.20;;;24.50;99.90;;;;;;4953797;28;20185;-79
2021/08/20 07:46:30;;;;;;;12.30;5.47;;;24.40;99.90;;;;;;4954149;28;20211;-79
2021/08/20 07:48:55;;;;;;;6.70;5.80;;;24.50;99.90;;;;;;4953690;28;20210;-80
2021/08/20 07:51:21;;;;;;;6.60;4.57;;;24.90;99.90;;;;;;4956078;28;20567;-81
2021/08/20 07:53:46;;;;;;;14.07;4.63;;;25.10;99.90;;;;;;4956375;28;20187;-81
2021/08/20 07:56:12;;;;;;;5.80;4.80;;;25.60;99.90;;;;;;4956822;28;20180;-80
2021/08/20 07:58:38;;;;;;;5.57;4.77;;;25.80;99.90;;;;;;4956629;28;20227;-80
2021/08/20 08:01:03;;;;;;;4.97;4.47;;;26.20;99.90;;;;;;4956121;28;20444;-80
2021/08/20 08:03:29;;;;;;;6.00;5.40;;;26.40;99.90;;;;;;4955745;28;20196;-81
2021/08/20 08:05:55;;;;;;;12.33;5.47;;;26.50;99.90;;;;;;4955272;28;20181;-80
2021/08/20 08:08:20;;;;;;;5.77;5.13;;;26.60;99.90;;;;;;4954648;28;20424;-80
2021/08/20 08:10:46;;;;;;;9.80;4.83;;;26.60;99.90;;;;;;4954927;28;20204;-80
2021/08/20 08:13:11;;;;;;;9.03;5.70;;;26.80;99.90;;;;;;4955403;28;20187;-82
2021/08/20 08:15:37;;;;;;;14.17;5.47;;;26.80;99.90;;;;;;4955596;28;20268;-80
2021/08/20 08:18:03;;;;;;;6.60;4.80;;;27.00;99.90;;;;;;4955518;28;20181;-80
2021/08/20 08:20:28;;;;;;;5.13;4.17;;;26.80;99.90;;;;;;4955737;28;20177;-80
2021/08/20 08:22:54;;;;;;;11.57;4.90;;;26.90;99.90;;;;;;4955772;28;20216;-82
2021/08/20 08:25:20;;;;;;;6.13;5.17;;;27.30;99.90;;;;;;4955213;28;20181;-80
2021/08/20 08:27:57;;;;;;;6.07;5.47;;;27.70;99.90;;;;;;4955203;28;20287;-80
2021/08/20 08:30:28;;;;;;;5.77;4.73;;;27.10;99.90;;;;;;4955110;28;20232;-81
2021/08/20 08:32:55;;;;;;;5.60;4.57;;;27.00;99.90;;;;;;4955114;28;20527;-81
2021/08/20 08:35:21;;;;;;;6.00;4.77;;;26.80;99.90;;;;;;4954562;28;20909;-81
2021/08/20 08:37:47;;;;;;;5.00;4.50;;;26.20;99.90;;;;;;4955072;28;20495;-78
2021/08/20 08:40:13;;;;;;;11.30;6.10;;;25.80;99.90;;;;;;4953579;29;20192;-80
2021/08/20 08:42:39;;;;;;;7.93;5.23;;;25.70;99.90;;;;;;4954849;28;20216;-80
2021/08/20 08:45:06;;;;;;;7.73;6.17;;;26.10;99.90;;;;;;4954669;28;20219;-80
2021/08/20 08:47:33;;;;;;;5.57;5.17;;;26.00;99.90;;;;;;4954439;28;20424;-80
2021/08/20 08:50:00;;;;;;;6.73;5.67;;;25.60;99.90;;;;;;4953678;28;20499;-80
2021/08/20 08:52:26;;;;;;;6.17;5.67;;;25.50;99.90;;;;;;4953876;28;20436;-81
2021/08/20 08:54:51;;;;;;;6.30;5.50;;;25.20;99.90;;;;;;4954036;28;20424;-80
2021/08/20 08:57:18;;;;;;;5.50;5.00;;;24.70;99.90;;;;;;4953788;28;20611;-80
2021/08/20 08:59:43;;;;;;;8.30;5.40;;;24.40;99.90;;;;;;4954040;28;20184;-80
2021/08/20 09:02:31;;;;;;;8.40;5.23;;;23.70;99.90;;;;;;4953440;28;20444;-80
2021/08/20 09:05:05;;;;;;;7.17;5.77;;;23.50;99.90;;;;;;4953532;28;20191;-81
2021/08/20 09:07:34;;;;;;;6.13;5.53;;;23.30;99.90;;;;;;4953894;28;20424;-79
2021/08/20 09:10:10;;;;;;;6.20;5.60;;;23.10;99.90;;;;;;4953324;28;20475;-80
2021/08/20 09:12:36;;;;;;;6.57;5.77;;;22.90;99.90;;;;;;4953998;28;20464;-80
2021/08/20 09:15:02;;;;;;;8.23;6.60;;;22.90;99.90;;;;;;4954544;28;20487;-81
2021/08/20 09:17:35;;;;;;;9.60;5.50;;;22.90;99.90;;;;;;4956996;28;20177;-80
2021/08/20 09:20:17;;;;;;;7.27;5.87;;;23.00;99.90;;;;;;4956728;28;20850;-80
2021/08/20 09:22:44;;;;;;;5.07;4.57;;;23.20;99.90;;;;;;4956687;28;20432;-80
2021/08/20 09:25:43;;;;;;;5.47;4.97;;;23.70;99.90;;;;;;4956654;28;20797;-81
2021/08/20 09:28:17;;;;;;;5.23;4.73;;;24.10;99.90;;;;;;4956766;28;20420;-81
2021/08/20 09:30:56;;;;;;;4.83;4.43;;;24.10;99.90;;;;;;4956759;28;20413;-81
2021/08/20 09:33:38;;;;;;;5.30;4.90;;;23.90;99.90;;;;;;4957392;28;20499;-80
2021/08/20 09:36:09;;;;;;;5.40;4.90;;;24.50;99.90;;;;;;4956628;28;20404;-81
2021/08/20 09:38:46;;;;;;;6.20;5.70;;;25.60;99.90;;;;;;4957397;28;20777;-81
2021/08/20 09:41:15;;;;;;;7.23;5.17;;;26.20;99.90;;;;;;4956954;28;20427;-81
2021/08/20 09:43:42;;;;;;;5.43;4.93;;;25.80;99.90;;;;;;4957353;28;20729;-81
2021/08/20 09:46:18;;;;;;;5.33;4.80;;;25.50;99.90;;;;;;4957010;28;20440;-80
2021/08/20 09:48:43;;;;;;;5.23;4.57;;;25.80;99.90;;;;;;4956780;28;20538;-81
2021/08/20 09:51:11;;;;;;;5.07;4.57;;;26.40;99.90;;;;;;4957092;28;20448;-80
2021/08/20 09:53:36;;;;;;;4.73;4.40;;;26.30;99.90;;;;;;4956992;28;20204;-81
2021/08/20 09:56:06;;;;;;;5.27;4.60;;;25.90;99.90;;;;;;4957184;28;20468;-81
2021/08/20 09:58:33;;;;;;;17.40;5.27;;;25.50;99.90;;;;;;4957030;28;20173;-81
2021/08/20 10:01:01;;;;;;;5.53;4.97;;;25.10;99.90;;;;;;4956973;28;20467;-80
2021/08/20 10:03:28;;;;;;;3.83;3.63;;;24.80;99.90;;;;;;4956855;28;20419;-80
2021/08/20 10:05:55;;;;;;;7.67;4.37;;;24.60;99.90;;;;;;4957054;28;20416;-81
2021/08/20 10:08:21;;;;;;;7.70;5.40;;;24.80;99.90;;;;;;4956265;28;20417;-80
2021/08/20 10:10:49;;;;;;;6.27;5.00;;;25.00;99.90;;;;;;4957297;28;20570;-80
2021/08/20 10:13:16;;;;;;;5.60;4.30;;;25.10;99.90;;;;;;4956814;28;20451;-81
2021/08/20 10:15:43;;;;;;;4.50;4.20;;;25.10;99.90;;;;;;4956956;28;20476;-81
2021/08/20 10:18:11;;;;;;;7.70;5.00;;;25.00;99.90;;;;;;4956380;28;20967;-80
2021/08/20 10:20:39;;;;;;;3.60;3.30;;;24.70;99.90;;;;;;4956513;28;20420;-80
2021/08/20 10:23:05;;;;;;;5.70;4.13;;;24.70;99.90;;;;;;4956590;28;20471;-80
2021/08/20 10:25:32;;;;;;;3.80;3.50;;;24.90;99.90;;;;;;4957172;28;20419;-80
2021/08/20 10:27:58;;;;;;;6.67;4.20;;;24.70;99.90;;;;;;4956288;28;20440;-80
2021/08/20 10:30:25;;;;;;;3.57;3.27;;;25.40;99.90;;;;;;4956136;28;20947;-80
2021/08/20 10:33:06;;;;;;;4.13;3.70;;;26.20;99.90;;;;;;4955674;28;20448;-80
2021/08/20 10:35:49;;;;;;;6.37;3.80;;;27.40;99.90;;;;;;4956239;28;20512;-80
2021/08/20 10:38:34;;;;;;;3.43;3.23;;;28.00;99.90;;;;;;4956593;28;20412;-80
2021/08/20 10:41:23;;;;;;;3.80;3.50;;;28.60;99.90;;;;;;4956178;28;20428;-81
2021/08/20 10:43:56;;;;;;;3.67;2.70;;;29.00;99.90;;;;;;4957014;29;20830;-81
2021/08/20 10:46:33;;;;;;;3.70;3.40;;;29.20;99.90;;;;;;4956035;28;20464;-81
2021/08/20 10:49:11;;;;;;;5.67;5.17;;;29.30;99.90;;;;;;4955584;28;20459;-82
2021/08/20 10:51:51;;;;;;;4.67;4.27;;;29.90;99.90;;;;;;4955824;28;20933;-81
2021/08/20 10:54:22;;;;;;;3.60;3.30;;;30.60;99.90;;;;;;4955827;28;21034;-81
2021/08/20 10:56:48;;;;;;;5.17;3.10;;;30.90;99.90;;;;;;4956126;28;20416;-82
2021/08/20 10:59:35;;;;;;;4.03;3.73;;;31.00;99.90;;;;;;4956720;28;20933;-81
2021/08/20 11:02:19;;;;;;;3.50;3.20;;;30.70;99.90;;;;;;4958995;28;20427;-81
2021/08/20 11:05:01;;;;;;;5.63;3.37;;;30.70;99.90;;;;;;4958831;29;20507;-80
2021/08/20 11:07:39;;;;;;;7.23;3.43;;;30.20;99.90;;;;;;4960498;28;20404;-81
2021/08/20 11:10:08;;;;;;;3.30;3.10;;;30.10;99.90;;;;;;4958563;29;20468;-81
2021/08/20 11:12:58;;;;;;;3.23;3.03;;;29.70;99.90;;;;;;4957839;28;20440;-81
2021/08/20 11:15:23;;;;;;;3.33;3.03;;;28.90;99.90;;;;;;4959441;28;20412;-80
2021/08/20 11:18:00;;;;;;;3.27;3.00;;;28.60;99.90;;;;;;4960434;29;20420;-81
2021/08/20 11:20:26;;;;;;;2.63;2.43;;;28.50;99.90;;;;;;4963346;28;20596;-80
2021/08/20 11:23:04;;;;;;;3.40;3.10;;;28.30;99.90;;;;;;4958744;28;20504;-80
2021/08/20 11:25:36;;;;;;;3.80;2.80;;;28.40;99.90;;;;;;4958611;28;20958;-80
2021/08/20 11:28:06;;;;;;;3.40;3.10;;;28.70;99.90;;;;;;4958017;28;20416;-81
2021/08/20 11:30:39;;;;;;;3.73;3.17;;;28.50;99.90;;;;;;4956222;28;20462;-81
2021/08/20 11:33:13;;;;;;;3.10;2.70;;;27.90;99.90;;;;;;4956943;28;20413;-80
2021/08/20 11:35:39;;;;;;;3.70;3.40;;;27.20;99.90;;;;;;4955644;28;20416;-81
2021/08/20 11:38:04;;;;;;;3.70;3.40;;;26.70;99.90;;;;;;4955182;28;20413;-80
2021/08/20 11:40:30;;;;;;;3.20;3.00;;;26.20;99.90;;;;;;4958067;28;20834;-80
2021/08/20 11:43:10;;;;;;;4.23;3.53;;;25.80;99.90;;;;;;4957935;28;20173;-80
2021/08/20 11:45:36;;;;;;;3.90;3.23;;;25.70;99.90;;;;;;4959686;28;20184;-80
2021/08/20 11:48:03;;;;;;;4.03;3.73;;;26.00;99.90;;;;;;4957619;28;21052;-80
2021/08/20 11:50:31;;;;;;;4.17;2.93;;;26.50;99.90;;;;;;4957629;28;20460;-79
2021/08/20 11:52:58;;;;;;;3.10;2.90;;;27.00;99.90;;;;;;4956501;28;20420;-81
2021/08/20 11:55:24;;;;;;;3.57;3.27;;;27.20;99.90;;;;;;4956478;28;20416;-80
2021/08/20 11:57:50;;;;;;;3.50;2.90;;;26.90;99.90;;;;;;4956553;28;20415;-80
2021/08/20 12:00:16;;;;;;;4.33;3.20;;;26.70;99.90;;;;;;4955066;28;20412;-81
2021/08/20 12:02:42;;;;;;;3.00;2.80;;;26.40;99.90;;;;;;4957105;28;20197;-81
2021/08/20 12:05:19;;;;;;;4.30;3.00;;;26.40;99.90;;;;;;4958390;28;20413;-81
2021/08/20 12:07:45;;;;;;;3.33;3.03;;;26.60;99.90;;;;;;4958872;28;20426;-80
2021/08/20 12:10:12;;;;;;;2.83;2.43;;;26.90;99.90;;;;;;4958873;28;20500;-81
2021/08/20 12:12:41;;;;;;;3.43;3.13;;;27.20;99.90;;;;;;4962538;28;20463;-81
2021/08/20 12:15:09;;;;;;;3.10;2.90;;;27.20;99.90;;;;;;4962354;28;20441;-81
2021/08/20 12:17:35;;;;;;;4.50;3.00;;;26.80;99.90;;;;;;4957301;28;20440;-81
2021/08/20 12:20:23;;;;;;;5.03;2.70;;;26.80;99.90;;;;;;4958806;28;20412;-80
2021/08/20 12:22:50;;;;;;;3.20;2.50;;;26.90;99.90;;;;;;4958502;28;20212;-80
2021/08/20 12:25:18;;;;;;;2.67;2.47;;;26.80;99.90;;;;;;4958516;28;20420;-81
2021/08/20 12:27:46;;;;;;;3.20;2.87;;;26.60;99.90;;;;;;4958624;28;20428;-81
2021/08/20 12:30:22;;;;;;;3.80;3.50;;;26.20;99.90;;;;;;4956819;29;20495;-81
2021/08/20 12:32:56;;;;;;;3.20;3.00;;;25.90;99.90;;;;;;4958848;28;20455;-81
2021/08/20 12:35:22;;;;;;;6.43;2.80;;;25.90;99.90;;;;;;4958125;28;20416;-81
2021/08/20 12:37:58;;;;;;;2.93;2.73;;;26.00;99.90;;;;;;4958499;28;20561;-81
2021/08/20 12:40:39;;;;;;;3.87;2.80;;;26.20;99.90;;;;;;4957749;29;20424;-82
2021/08/20 12:43:33;;;;;;;4.17;2.90;;;26.10;99.90;;;;;;4958217;28;20512;-81
2021/08/20 12:46:02;;;;;;;4.97;2.77;;;26.20;99.90;;;;;;4958584;28;20412;-81
2021/08/20 12:48:28;;;;;;;3.10;2.90;;;26.30;99.90;;;;;;4957952;28;20471;-81
2021/08/20 12:51:02;;;;;;;2.90;2.73;;;26.50;99.90;;;;;;4960881;28;20424;-81
2021/08/20 12:53:33;;;;;;;5.53;3.30;;;26.80;99.90;;;;;;4960360;29;20176;-80
2021/08/20 12:56:01;;;;;;;2.47;2.33;;;27.10;99.90;;;;;;4962319;28;20419;-80
2021/08/20 12:58:29;;;;;;;3.30;3.00;;;27.20;99.90;;;;;;4961497;28;20559;-81
2021/08/20 13:01:00;;;;;;;3.60;3.20;;;27.30;99.90;;;;;;4960967;28;20432;-80
2021/08/20 13:03:27;;;;;;;5.20;3.57;;;27.20;99.90;;;;;;4961473;28;20436;-81
2021/08/20 13:05:58;;;;;;;3.40;2.80;;;27.30;99.90;;;;;;4961739;28;20427;-81
2021/08/20 13:08:29;;;;;;;2.53;2.43;;;27.20;99.90;;;;;;4960033;29;20459;-81
2021/08/20 13:10:57;;;;;;;2.80;2.60;;;27.10;99.90;;;;;;4961248;28;20460;-81
2021/08/20 13:13:23;;;;;;;2.63;2.43;;;26.90;99.90;;;;;;4960949;28;20420;-80
2021/08/20 13:15:49;;;;;;;2.40;2.30;;;26.80;99.90;;;;;;4960643;28;20417;-80
2021/08/20 13:18:15;;;;;;;2.87;2.67;;;26.60;99.90;;;;;;4961168;28;20467;-80
2021/08/20 13:20:45;;;;;;;3.97;2.80;;;26.50;99.90;;;;;;4960621;28;20408;-82
2021/08/20 13:23:11;;;;;;;3.00;2.80;;;26.10;99.90;;;;;;4961179;28;20755;-81
2021/08/20 13:25:36;;;;;;;6.00;2.77;;;25.90;99.90;;;;;;4962528;28;20420;-81
2021/08/20 13:28:04;;;;;;;2.80;2.60;;;25.70;99.90;;;;;;4962801;28;20428;-80
2021/08/20 13:30:29;;;;;;;3.40;3.10;;;25.70;99.90;;;;;;4962201;28;20227;-79
2021/08/20 13:32:55;;;;;;;2.70;2.50;;;25.80;99.90;;;;;;4962757;28;20425;-82
2021/08/20 13:35:20;;;;;;;2.47;2.10;;;25.80;99.90;;;;;;4962259;28;20289;-81
2021/08/20 13:37:47;;;;;;;2.30;2.20;;;25.80;99.90;;;;;;4962276;28;20643;-80
2021/08/20 13:40:13;;;;;;;2.93;2.67;;;25.90;99.90;;;;;;4961519;28;20181;-81
2021/08/20 13:42:38;;;;;;;3.20;2.93;;;25.90;99.90;;;;;;4961732;28;20443;-82
2021/08/20 13:45:04;;;;;;;2.90;2.67;;;26.20;99.90;;;;;;4961784;28;20588;-82
2021/08/20 13:47:30;;;;;;;2.40;2.30;;;26.30;99.90;;;;;;4961999;28;20208;-81
2021/08/20 13:49:55;;;;;;;3.40;2.20;;;26.20;99.90;;;;;;4961014;28;20845;-81
2021/08/20 13:52:21;;;;;;;3.50;3.20;;;26.20;99.90;;;;;;4961762;28;20534;-80
2021/08/20 13:54:46;;;;;;;2.37;2.10;;;26.20;99.90;;;;;;4961298;29;20184;-82
2021/08/20 13:57:11;;;;;;;2.90;2.70;;;26.40;99.90;;;;;;4962321;28;20185;-81
2021/08/20 13:59:37;;;;;;;5.33;3.00;;;26.20;99.90;;;;;;4961373;28;20240;-81
2021/08/20 14:02:03;;;;;;;3.80;2.67;;;25.90;99.90;;;;;;4960648;28;20220;-81
2021/08/20 14:04:28;;;;;;;4.37;2.50;;;25.70;99.90;;;;;;4961124;28;20621;-81
2021/08/20 14:06:54;;;;;;;3.20;2.80;;;25.60;99.90;;;;;;4960122;28;20562;-82
2021/08/20 14:09:19;;;;;;;4.07;2.73;;;25.40;99.90;;;;;;4960475;28;20298;-81
2021/08/20 14:11:45;;;;;;;3.47;3.20;;;25.30;99.90;;;;;;4959073;28;20311;-81
2021/08/20 14:14:10;;;;;;;3.00;2.83;;;25.20;99.90;;;;;;4960388;28;20204;-80
2021/08/20 14:16:36;;;;;;;2.57;2.37;;;25.10;99.90;;;;;;4959191;28;20208;-81
2021/08/20 14:19:02;;;;;;;3.13;2.83;;;25.20;99.90;;;;;;4959597;28;20184;-81
2021/08/20 14:21:27;;;;;;;2.77;2.40;;;25.30;99.90;;;;;;4959543;28;20232;-80
2021/08/20 14:23:53;;;;;;;3.13;2.70;;;25.30;99.90;;;;;;4959573;28;20227;-81
2021/08/20 14:26:19;;;;;;;3.60;3.33;;;25.30;99.90;;;;;;4959309;28;20184;-81
2021/08/20 14:28:44;;;;;;;2.40;2.20;;;25.20;99.90;;;;;;4959377;28;20207;-81
2021/08/20 14:31:10;;;;;;;5.73;2.87;;;25.20;99.90;;;;;;4959283;28;20224;-81
2021/08/20 14:33:36;;;;;;;3.10;2.90;;;25.20;99.90;;;;;;4959605;28;20184;-81
2021/08/20 14:36:02;;;;;;;3.10;2.90;;;25.20;99.90;;;;;;4959481;28;20181;-80
2021/08/20 14:38:27;;;;;;;2.50;2.30;;;25.20;99.90;;;;;;4958619;28;20714;-81
2021/08/20 14:40:53;;;;;;;3.27;2.97;;;25.20;99.90;;;;;;4957677;28;20287;-81
2021/08/20 14:43:19;;;;;;;3.17;2.83;;;25.40;99.90;;;;;;4958898;28;20257;-81
2021/08/20 14:45:44;;;;;;;2.73;2.50;;;25.40;99.90;;;;;;4958722;28;20184;-80
2021/08/20 14:48:10;;;;;;;3.50;3.30;;;25.30;99.90;;;;;;4958026;28;20643;-80
2021/08/20 14:50:36;;;;;;;2.57;2.40;;;25.40;99.90;;;;;;4958129;28;20212;-82
2021/08/20 14:53:03;;;;;;;2.73;2.50;;;25.30;99.90;;;;;;4958183;28;20208;-81
2021/08/20 14:55:29;;;;;;;3.30;3.10;;;25.30;99.90;;;;;;4957871;28;20195;-81
2021/08/20 14:57:54;;;;;;;3.13;2.93;;;25.20;99.90;;;;;;4956663;28;20413;-81
2021/08/20 15:00:20;;;;;;;3.77;2.33;;;25.10;99.90;;;;;;4957823;28;20188;-82
2021/08/20 15:02:46;;;;;;;3.30;2.57;;;25.10;99.90;;;;;;4957324;28;20345;-81
2021/08/20 15:05:11;;;;;;;3.00;2.80;;;24.90;99.90;;;;;;4957149;28;20181;-81
2021/08/20 15:07:37;;;;;;;3.70;3.40;;;24.80;99.90;;;;;;4957556;28;20181;-81
2021/08/20 15:10:03;;;;;;;3.77;3.47;;;24.70;99.90;;;;;;4957027;28;20208;-82
2021/08/20 15:12:37;;;;;;;3.07;2.87;;;24.70;99.90;;;;;;4956591;28;20189;-82
2021/08/20 15:15:03;;;;;;;4.20;3.80;;;24.80;99.90;;;;;;4958266;28;20447;-82
2021/08/20 15:17:29;;;;;;;2.90;2.60;;;24.80;99.90;;;;;;4955556;28;20509;-81
2021/08/20 15:19:54;;;;;;;11.60;3.40;;;24.90;99.90;;;;;;4955019;28;20207;-81
2021/08/20 15:22:20;;;;;;;3.30;2.60;;;24.90;99.90;;;;;;4954817;28;20193;-81
2021/08/20 15:24:45;;;;;;;2.73;2.53;;;24.90;99.90;;;;;;4955031;28;20177;-79
2021/08/20 15:27:11;;;;;;;3.27;2.40;;;25.00;99.90;;;;;;4954767;28;20187;-81
2021/08/20 15:29:37;;;;;;;2.60;2.37;;;25.00;99.90;;;;;;4954972;28;20208;-81
2021/08/20 15:32:07;;;;;;;3.10;2.87;;;24.90;99.90;;;;;;4954672;28;20275;-81
2021/08/20 15:34:32;;;;;;;2.90;2.70;;;24.90;99.90;;;;;;4954915;28;20557;-81
2021/08/20 15:36:58;;;;;;;2.67;2.47;;;24.80;99.90;;;;;;4954387;28;20421;-81
2021/08/20 15:39:30;;;;;;;3.50;3.30;;;24.70;99.90;;;;;;4954675;28;20220;-81
2021/08/20 15:41:55;;;;;;;3.23;3.03;;;24.70;99.90;;;;;;4954381;28;20197;-80
2021/08/20 15:44:21;;;;;;;6.53;2.53;;;24.70;99.90;;;;;;4954516;28;20511;-81
2021/08/20 15:46:46;;;;;;;2.93;2.73;;;24.70;99.90;;;;;;4954111;28;20176;-78
2021/08/20 15:49:12;;;;;;;3.77;3.10;;;24.70;99.90;;;;;;4954471;28;20316;-81
2021/08/20 15:51:38;;;;;;;2.80;2.70;;;24.60;99.90;;;;;;4954674;28;20565;-81
2021/08/20 15:54:05;;;;;;;4.47;2.53;;;24.60;99.90;;;;;;4954558;28;20247;-81
2021/08/20 15:56:32;;;;;;;5.10;2.70;;;24.60;99.90;;;;;;4955124;28;20412;-81
2021/08/20 15:58:58;;;;;;;3.53;2.80;;;24.60;99.90;;;;;;4953994;28;20432;-81
2021/08/20 16:01:23;;;;;;;3.30;3.00;;;24.60;99.90;;;;;;4954224;28;20444;-81
2021/08/20 16:03:49;;;;;;;3.00;2.80;;;24.70;99.90;;;;;;4954403;28;20531;-80
2021/08/20 16:06:15;;;;;;;2.43;2.23;;;24.60;99.90;;;;;;4954408;28;20176;-81
2021/08/20 16:08:40;;;;;;;3.10;2.80;;;24.50;99.90;;;;;;4954271;29;20181;-80
2021/08/20 16:11:06;;;;;;;3.80;3.40;;;24.40;99.90;;;;;;4953617;28;20770;-81
2021/08/20 16:13:31;;;;;;;3.43;2.50;;;24.40;99.90;;;;;;4954006;28;20183;-80
2021/08/20 16:15:57;;;;;;;2.43;2.33;;;24.30;99.90;;;;;;4954326;28;20187;-81
2021/08/20 16:18:22;;;;;;;2.67;2.47;;;24.30;99.90;;;;;;4954459;28;20660;-81
2021/08/20 16:20:48;;;;;;;3.47;2.70;;;24.20;99.90;;;;;;4954724;28;20692;-81
2021/08/20 16:23:14;;;;;;;3.30;3.10;;;24.20;99.90;;;;;;4954552;28;20183;-81
2021/08/20 16:25:40;;;;;;;3.03;2.83;;;24.20;99.90;;;;;;4958988;28;20519;-80
2021/08/20 16:28:06;;;;;;;3.40;2.73;;;24.10;99.90;;;;;;4959377;28;20981;-80
2021/08/20 16:30:31;;;;;;;3.10;2.77;;;24.10;99.90;;;;;;4958755;28;20275;-78
2021/08/20 16:32:57;;;;;;;2.87;2.67;;;24.00;99.90;;;;;;4958421;28;20181;-81
2021/08/20 16:35:26;;;;;;;4.00;3.20;;;24.00;99.90;;;;;;4958450;28;20177;-81
2021/08/20 16:37:52;;;;;;;4.90;2.80;;;23.90;99.90;;;;;;4958375;29;20807;-80
2021/08/20 16:40:18;;;;;;;4.80;3.57;;;23.80;99.90;;;;;;4957682;28;20420;-81
2021/08/20 16:42:45;;;;;;;3.10;2.90;;;23.70;99.90;;;;;;4958086;28;20434;-81
2021/08/20 16:45:12;;;;;;;3.90;3.43;;;23.70;99.90;;;;;;4959031;28;20192;-80
2021/08/20 16:47:38;;;;;;;6.00;3.60;;;23.70;99.90;;;;;;4958694;28;20522;-80
2021/08/20 16:50:05;;;;;;;2.80;2.63;;;23.70;99.90;;;;;;4958019;28;20455;-81
2021/08/20 16:52:31;;;;;;;3.73;3.23;;;23.70;99.90;;;;;;4957633;28;20443;-81
2021/08/20 16:54:57;;;;;;;3.40;3.00;;;23.70;99.90;;;;;;4957750;28;20914;-81
2021/08/20 16:57:23;;;;;;;3.00;2.70;;;23.70;99.90;;;;;;4957966;28;20173;-81
2021/08/20 16:59:48;;;;;;;2.90;2.63;;;23.60;99.90;;;;;;4959194;28;20512;-80
2021/08/20 17:02:14;;;;;;;3.03;2.80;;;23.50;99.90;;;;;;4957399;28;20199;-80
2021/08/20 17:04:40;;;;;;;3.60;3.30;;;23.50;99.90;;;;;;4957549;28;20215;-81
2021/08/20 17:07:06;;;;;;;2.97;2.77;;;23.50;99.90;;;;;;4962578;28;20416;-82
2021/08/20 17:09:31;;;;;;;2.57;2.37;;;23.40;99.90;;;;;;4962647;28;20215;-81
2021/08/20 17:11:57;;;;;;;2.60;2.40;;;23.40;99.90;;;;;;4958637;28;20196;-81
2021/08/20 17:14:23;;;;;;;3.90;3.00;;;23.40;99.90;;;;;;4958858;28;20549;-81
2021/08/20 17:16:48;;;;;;;2.90;2.70;;;23.40;99.90;;;;;;4958601;28;20212;-82
2021/08/20 17:19:14;;;;;;;2.70;2.27;;;23.40;99.90;;;;;;4960464;28;20185;-80